WetterOnline ( http://www.wetteronline.de )

Wetter aktuell Giesensdorf

Aktuelles Wetter: Boizenburg (46m)

6-stündlich | Neueste Meldungen
Ortszeit Temperatur Wetter
Fr, 23.02. 19:00 -2.6° C wolkenlos
Fr, 23.02. 13:00 -1.1° C leicht bewölkt
Fr, 23.02. 7:00 -4.0° C wolkenlos
Fr, 23.02. 1:00 -0.2° C bedeckt
Do, 22.02. 19:00 0.6° C bedeckt
Do, 22.02. 13:00 1.6° C bewölkt
Do, 22.02. 7:00 -2.0° C bewölkt
Do, 22.02. 1:00 -2.8° C wolkig
Ortszeit Temperatur Wetter
Fr, 23.02. 23:00 -4.1° C leicht bewölkt
Fr, 23.02. 22:50 -4.1° C leicht bewölkt
Fr, 23.02. 22:40 -4.3° C leicht bewölkt
Fr, 23.02. 22:30 -3.9° C fast wolkenlos
Fr, 23.02. 22:20 -3.9° C fast wolkenlos
Fr, 23.02. 22:10 -3.8° C leicht bewölkt
Fr, 23.02. 22:00 -3.9° C leicht bewölkt
Fr, 23.02. 21:30 -3.8° C wolkenlos
Fr, 23.02. 21:00 -3.5° C wolkenlos
Fr, 23.02. 20:30 -3.0° C fast wolkenlos
Fr, 23.02. 20:00 -2.8° C wolkenlos
Ortszeit Relative Feuchte Sichtweite
Fr, 23.02. 19:00 61% 21 km
Fr, 23.02. 13:00 66% 10 km
Fr, 23.02. 7:00 83% 18 km
Fr, 23.02. 1:00 84% 11 km
Do, 22.02. 19:00 80% 19 km
Do, 22.02. 13:00 80% 5.0 km
Do, 22.02. 7:00 93% 3.6 km
Do, 22.02. 1:00 96% 3.3 km
Ortszeit Relative Feuchte Sichtweite
Fr, 23.02. 23:00 75% 23 km
Fr, 23.02. 22:50 75% -
Fr, 23.02. 22:40 75% -
Fr, 23.02. 22:30 74% 22 km
Fr, 23.02. 22:20 74% -
Fr, 23.02. 22:10 73% -
Fr, 23.02. 22:00 72% 26 km
Fr, 23.02. 21:30 70% 22 km
Fr, 23.02. 21:00 70% 22 km
Fr, 23.02. 20:30 67% 20 km
Fr, 23.02. 20:00 66% 20 km
Ortszeit Niederschlagsmenge Niederschlagsart
Fr, 23.02. 19:00 0.0 l/m2 in 12 Std. -
Fr, 23.02. 13:00 0.0 l/m2 in 6 Std. -
Fr, 23.02. 7:00 0.0 l/m2 in 12 Std. -
Fr, 23.02. 1:00 0.0 l/m2 in 6 Std. -
Do, 22.02. 19:00 0.1 l/m2 in 12 Std. Niederschlag
Do, 22.02. 13:00 0.1 l/m2 in 6 Std. Schnee, Niederschlag
Do, 22.02. 7:00 0.0 l/m2 in 12 Std. -
Do, 22.02. 1:00 0.0 l/m2 in 6 Std. -
Ortszeit Niederschlagsmenge Niederschlagsart
Fr, 23.02. 23:00 0.0 l/m2 in 1 Std. -
Fr, 23.02. 22:50 keine Meldung -
Fr, 23.02. 22:40 keine Meldung -
Fr, 23.02. 22:30 0.0 l/m2 in 1 Std. -
Fr, 23.02. 22:20 keine Meldung -
Fr, 23.02. 22:10 keine Meldung -
Fr, 23.02. 22:00 0.0 l/m2 in 1 Std. -
Fr, 23.02. 21:30 0.0 l/m2 in 1 Std. -
Fr, 23.02. 21:00 0.0 l/m2 in 1 Std. -
Fr, 23.02. 20:30 0.0 l/m2 in 1 Std. -
Fr, 23.02. 20:00 0.0 l/m2 in 1 Std. -
Ortszeit Stärke Spitze Richtung
km/h Bft. km/h Grad Sektor
Fr, 23.02. 19:00 14 3 29 70° O
Fr, 23.02. 13:00 17 3 35 70° O
Fr, 23.02. 7:00 11 2 29 60° NO
Fr, 23.02. 1:00 17 3 26 60° NO
Do, 22.02. 19:00 13 3 20 20° N
Do, 22.02. 13:00 4 1 11 120° SO
Do, 22.02. 7:00 4 1 11 350° N
Do, 22.02. 1:00 7 2 11 350° N
Ortszeit Stärke Spitze Richtung
km/h Bft. km/h Grad Sektor
Fr, 23.02. 23:00 7 2 11 70° O
Fr, 23.02. 22:50 7 2 - 70° O
Fr, 23.02. 22:40 9 2 - 70° O
Fr, 23.02. 22:30 7 2 11 80° O
Fr, 23.02. 22:20 7 2 - 80° O
Fr, 23.02. 22:10 7 2 - 70° O
Fr, 23.02. 22:00 9 2 22 60° NO
Fr, 23.02. 21:30 13 3 22 60° NO
Fr, 23.02. 21:00 13 3 20 60° NO
Fr, 23.02. 20:30 14 3 22 60° NO
Fr, 23.02. 20:00 13 3 19 60° NO
Ortszeit Untergrenze Bedeckung Gattung
total tief tief mittel hoch
Fr, 23.02. 19:00 5100 m 0/8 0/8 - - -
Fr, 23.02. 13:00 720 m 2/8 1/8 - - -
Fr, 23.02. 7:00 - 0/8 0/8 - - -
Fr, 23.02. 1:00 1320 m 8/8 8/8 - - -
Do, 22.02. 19:00 1200 m 8/8 8/8 - - -
Do, 22.02. 13:00 390 m 7/8 7/8 - - -
Do, 22.02. 7:00 1500 m 7/8 7/8 - - -
Do, 22.02. 1:00 2100 m 6/8 6/8 - - -
Ortszeit Bedeckungsgrad in Achtel und Wolkenuntergrenze
Fr, 23.02. 23:00 1(4500m) 3(5100m)
Fr, 23.02. 22:50 1(4500m) 3(5100m)
Fr, 23.02. 22:40 1(3600m) 3(4500m)
Fr, 23.02. 22:30 1(5100m)
Fr, 23.02. 22:20 1(5100m)
Fr, 23.02. 22:10 2(5100m)
Fr, 23.02. 22:00 2(5400m)
Fr, 23.02. 21:30 keine Wolken
Fr, 23.02. 21:00 keine Wolken
Fr, 23.02. 20:30 1(4800m)
Fr, 23.02. 20:00 1(4800m)
Ortszeit Luftdruck NN (hPa) Tendenz (hPa in 3 Std.)
Fr, 23.02. 19:00 1028 + 0,2
Fr, 23.02. 13:00 1028 0,0
Fr, 23.02. 7:00 1027 + 0,8
Fr, 23.02. 1:00 1027 + 0,3
Do, 22.02. 19:00 1026 - 0,2
Do, 22.02. 13:00 1028 - 0,1
Do, 22.02. 7:00 1027 - 0,2
Do, 22.02. 1:00 1028 + 0,1
Ortszeit Luftdruck NN (hPa) Tendenz (hPa in 3 Std.)
Fr, 23.02. 23:00 1029 + 1,1
Fr, 23.02. 22:50 1029 keine Meldung
Fr, 23.02. 22:40 1029 keine Meldung
Fr, 23.02. 22:30 1029 + 1,1
Fr, 23.02. 22:20 1029 keine Meldung
Fr, 23.02. 22:10 1029 keine Meldung
Fr, 23.02. 22:00 1029 + 1,3
Fr, 23.02. 21:30 1029 + 1,1
Fr, 23.02. 21:00 1029 + 1,0
Fr, 23.02. 20:30 1028 + 0,7
Fr, 23.02. 20:00 1028 + 0,7
Ortszeit Schneehöhe (cm)
Fr, 23.02. 19:00 0
Fr, 23.02. 13:00 0
Fr, 23.02. 7:00 0
Fr, 23.02. 1:00 0
Do, 22.02. 19:00 0
Do, 22.02. 13:00 0
Do, 22.02. 7:00 0
Do, 22.02. 1:00 0
Ortszeit Schneehöhe (cm)
Fr, 23.02. 23:00 -
Fr, 23.02. 22:50 -
Fr, 23.02. 22:40 0
Fr, 23.02. 22:30 -
Fr, 23.02. 22:20 -
Fr, 23.02. 22:10 -
Fr, 23.02. 22:00 0
Fr, 23.02. 21:30 0
Fr, 23.02. 21:00 0
Fr, 23.02. 20:30 0
Fr, 23.02. 20:00 0
Link zu dieser Seite / Seite empfehlen

Das Wetter in ...